sensor_id;sensor_type;location;lat;lon;timestamp;temperature;humidity
3194;DHT22;1608;50.860;13.466;2023-04-03T00:00:10;3.40;99.90
3194;DHT22;1608;50.860;13.466;2023-04-03T00:02:37;3.60;99.90
3194;DHT22;1608;50.860;13.466;2023-04-03T00:05:04;3.80;99.90
3194;DHT22;1608;50.860;13.466;2023-04-03T00:07:31;3.70;99.90
3194;DHT22;1608;50.860;13.466;2023-04-03T00:09:58;3.70;99.90
3194;DHT22;1608;50.860;13.466;2023-04-03T00:12:26;3.80;99.90
3194;DHT22;1608;50.860;13.466;2023-04-03T00:14:53;3.70;99.90
3194;DHT22;1608;50.860;13.466;2023-04-03T00:17:19;3.80;99.90
3194;DHT22;1608;50.860;13.466;2023-04-03T00:19:46;3.80;99.90
3194;DHT22;1608;50.860;13.466;2023-04-03T00:22:13;3.60;99.90
3194;DHT22;1608;50.860;13.466;2023-04-03T00:24:40;3.20;99.90
3194;DHT22;1608;50.860;13.466;2023-04-03T00:27:07;3.30;99.90
3194;DHT22;1608;50.860;13.466;2023-04-03T00:29:35;3.10;99.90
3194;DHT22;1608;50.860;13.466;2023-04-03T00:32:02;3.00;99.90
3194;DHT22;1608;50.860;13.466;2023-04-03T00:34:29;2.70;99.90
3194;DHT22;1608;50.860;13.466;2023-04-03T00:36:57;3.00;99.90
3194;DHT22;1608;50.860;13.466;2023-04-03T00:39:24;3.00;99.90
3194;DHT22;1608;50.860;13.466;2023-04-03T00:41:51;3.20;99.90
3194;DHT22;1608;50.860;13.466;2023-04-03T00:44:22;3.10;99.90
3194;DHT22;1608;50.860;13.466;2023-04-03T00:46:50;3.10;99.90
3194;DHT22;1608;50.860;13.466;2023-04-03T00:49:17;2.90;99.90
3194;DHT22;1608;50.860;13.466;2023-04-03T00:51:44;2.90;99.90
3194;DHT22;1608;50.860;13.466;2023-04-03T00:54:11;2.70;99.90
3194;DHT22;1608;50.860;13.466;2023-04-03T00:56:38;2.70;99.90
3194;DHT22;1608;50.860;13.466;2023-04-03T00:59:08;2.80;99.90
3194;DHT22;1608;50.860;13.466;2023-04-03T01:01:37;2.80;99.90
3194;DHT22;1608;50.860;13.466;2023-04-03T01:04:24;2.60;99.90
3194;DHT22;1608;50.860;13.466;2023-04-03T01:06:52;2.60;99.90
3194;DHT22;1608;50.860;13.466;2023-04-03T01:09:19;2.60;99.90
3194;DHT22;1608;50.860;13.466;2023-04-03T01:11:46;2.70;99.90
3194;DHT22;1608;50.860;13.466;2023-04-03T01:14:12;2.80;99.90
3194;DHT22;1608;50.860;13.466;2023-04-03T01:16:39;2.80;99.90
3194;DHT22;1608;50.860;13.466;2023-04-03T01:19:11;2.90;99.90
3194;DHT22;1608;50.860;13.466;2023-04-03T01:22:00;2.80;99.90
3194;DHT22;1608;50.860;13.466;2023-04-03T01:24:34;3.00;99.90
3194;DHT22;1608;50.860;13.466;2023-04-03T01:27:04;2.90;99.90
3194;DHT22;1608;50.860;13.466;2023-04-03T01:29:31;2.90;99.90
3194;DHT22;1608;50.860;13.466;2023-04-03T01:32:01;2.90;99.90
3194;DHT22;1608;50.860;13.466;2023-04-03T01:34:29;2.70;99.90
3194;DHT22;1608;50.860;13.466;2023-04-03T01:36:56;2.70;99.90
3194;DHT22;1608;50.860;13.466;2023-04-03T01:39:23;2.80;99.90
3194;DHT22;1608;50.860;13.466;2023-04-03T01:41:50;2.90;99.90
3194;DHT22;1608;50.860;13.466;2023-04-03T01:44:17;2.90;99.90
3194;DHT22;1608;50.860;13.466;2023-04-03T01:46:44;2.90;99.90
3194;DHT22;1608;50.860;13.466;2023-04-03T01:49:13;2.70;99.90
3194;DHT22;1608;50.860;13.466;2023-04-03T01:51:40;2.80;99.90
3194;DHT22;1608;50.860;13.466;2023-04-03T01:54:06;2.70;99.90
3194;DHT22;1608;50.860;13.466;2023-04-03T01:56:33;2.70;99.90
3194;DHT22;1608;50.860;13.466;2023-04-03T01:59:00;2.50;99.90
3194;DHT22;1608;50.860;13.466;2023-04-03T02:01:27;2.70;99.90
3194;DHT22;1608;50.860;13.466;2023-04-03T02:03:53;2.50;99.90
3194;DHT22;1608;50.860;13.466;2023-04-03T02:06:22;2.40;99.90
3194;DHT22;1608;50.860;13.466;2023-04-03T02:08:48;2.30;99.90
3194;DHT22;1608;50.860;13.466;2023-04-03T02:11:15;2.20;99.90
3194;DHT22;1608;50.860;13.466;2023-04-03T02:13:42;2.10;99.90
3194;DHT22;1608;50.860;13.466;2023-04-03T02:16:10;2.00;99.90
3194;DHT22;1608;50.860;13.466;2023-04-03T02:18:38;2.00;99.90
3194;DHT22;1608;50.860;13.466;2023-04-03T02:21:05;1.80;99.90
3194;DHT22;1608;50.860;13.466;2023-04-03T02:23:33;1.80;99.90
3194;DHT22;1608;50.860;13.466;2023-04-03T02:26:06;1.80;99.90
3194;DHT22;1608;50.860;13.466;2023-04-03T02:28:33;1.80;99.90
3194;DHT22;1608;50.860;13.466;2023-04-03T02:31:00;1.80;99.90
3194;DHT22;1608;50.860;13.466;2023-04-03T02:33:28;1.70;99.90
3194;DHT22;1608;50.860;13.466;2023-04-03T02:35:56;1.70;99.90
3194;DHT22;1608;50.860;13.466;2023-04-03T02:38:23;1.70;99.90
3194;DHT22;1608;50.860;13.466;2023-04-03T02:40:51;1.70;99.90
3194;DHT22;1608;50.860;13.466;2023-04-03T02:43:18;1.70;99.90
3194;DHT22;1608;50.860;13.466;2023-04-03T02:45:45;1.70;99.90
3194;DHT22;1608;50.860;13.466;2023-04-03T02:48:12;1.80;99.90
3194;DHT22;1608;50.860;13.466;2023-04-03T02:50:40;1.80;99.90
3194;DHT22;1608;50.860;13.466;2023-04-03T02:53:07;1.70;99.90
3194;DHT22;1608;50.860;13.466;2023-04-03T02:55:33;1.50;99.90
3194;DHT22;1608;50.860;13.466;2023-04-03T02:58:02;1.60;99.90
3194;DHT22;1608;50.860;13.466;2023-04-03T03:00:29;1.50;99.90
3194;DHT22;1608;50.860;13.466;2023-04-03T03:02:56;1.30;99.90
3194;DHT22;1608;50.860;13.466;2023-04-03T03:05:23;1.10;99.90
3194;DHT22;1608;50.860;13.466;2023-04-03T03:07:50;0.90;99.90
3194;DHT22;1608;50.860;13.466;2023-04-03T03:10:16;1.00;99.90
3194;DHT22;1608;50.860;13.466;2023-04-03T03:12:43;1.00;99.90
3194;DHT22;1608;50.860;13.466;2023-04-03T03:15:12;0.90;99.90
3194;DHT22;1608;50.860;13.466;2023-04-03T03:17:40;0.80;99.90
3194;DHT22;1608;50.860;13.466;2023-04-03T03:20:08;0.70;99.90
3194;DHT22;1608;50.860;13.466;2023-04-03T03:22:35;0.70;99.90
3194;DHT22;1608;50.860;13.466;2023-04-03T03:25:03;0.70;99.90
3194;DHT22;1608;50.860;13.466;2023-04-03T03:27:30;0.70;99.90
3194;DHT22;1608;50.860;13.466;2023-04-03T03:29:57;0.70;99.90
3194;DHT22;1608;50.860;13.466;2023-04-03T03:32:25;0.80;99.90
3194;DHT22;1608;50.860;13.466;2023-04-03T03:34:52;0.80;99.90
3194;DHT22;1608;50.860;13.466;2023-04-03T03:37:19;0.80;99.90
3194;DHT22;1608;50.860;13.466;2023-04-03T03:39:45;0.70;99.90
3194;DHT22;1608;50.860;13.466;2023-04-03T03:42:12;0.60;99.90
3194;DHT22;1608;50.860;13.466;2023-04-03T03:44:39;0.50;99.90
3194;DHT22;1608;50.860;13.466;2023-04-03T03:47:06;0.40;99.90
3194;DHT22;1608;50.860;13.466;2023-04-03T03:49:36;0.40;99.90
3194;DHT22;1608;50.860;13.466;2023-04-03T03:52:03;0.40;99.90
3194;DHT22;1608;50.860;13.466;2023-04-03T03:54:30;0.40;99.90
3194;DHT22;1608;50.860;13.466;2023-04-03T03:56:57;0.30;99.90
3194;DHT22;1608;50.860;13.466;2023-04-03T03:59:24;0.30;99.90
3194;DHT22;1608;50.860;13.466;2023-04-03T04:01:50;0.30;99.90
3194;DHT22;1608;50.860;13.466;2023-04-03T04:04:17;0.30;99.90
3194;DHT22;1608;50.860;13.466;2023-04-03T04:06:45;0.30;99.90
3194;DHT22;1608;50.860;13.466;2023-04-03T04:09:12;0.30;99.90
3194;DHT22;1608;50.860;13.466;2023-04-03T04:11:39;0.30;99.90
3194;DHT22;1608;50.860;13.466;2023-04-03T04:14:06;0.30;99.90
3194;DHT22;1608;50.860;13.466;2023-04-03T04:16:35;0.40;99.90
3194;DHT22;1608;50.860;13.466;2023-04-03T04:19:02;0.30;99.90
3194;DHT22;1608;50.860;13.466;2023-04-03T04:21:29;0.40;99.90
3194;DHT22;1608;50.860;13.466;2023-04-03T04:23:57;0.30;99.90
3194;DHT22;1608;50.860;13.466;2023-04-03T04:26:24;0.30;99.90
3194;DHT22;1608;50.860;13.466;2023-04-03T04:28:51;0.20;99.90
3194;DHT22;1608;50.860;13.466;2023-04-03T04:31:18;0.00;99.90
3194;DHT22;1608;50.860;13.466;2023-04-03T04:33:45;0.00;99.90
3194;DHT22;1608;50.860;13.466;2023-04-03T04:36:11;-0.10;99.90
3194;DHT22;1608;50.860;13.466;2023-04-03T04:38:40;-0.10;99.90
3194;DHT22;1608;50.860;13.466;2023-04-03T04:41:08;0.00;99.90
3194;DHT22;1608;50.860;13.466;2023-04-03T04:43:35;0.00;99.90
3194;DHT22;1608;50.860;13.466;2023-04-03T04:46:03;0.00;99.90
3194;DHT22;1608;50.860;13.466;2023-04-03T04:48:30;0.00;99.90
3194;DHT22;1608;50.860;13.466;2023-04-03T04:50:57;0.20;99.90
3194;DHT22;1608;50.860;13.466;2023-04-03T04:53:24;0.30;99.90
3194;DHT22;1608;50.860;13.466;2023-04-03T04:55:51;0.40;99.90
3194;DHT22;1608;50.860;13.466;2023-04-03T04:58:19;0.30;99.90
3194;DHT22;1608;50.860;13.466;2023-04-03T05:00:46;0.30;99.90
3194;DHT22;1608;50.860;13.466;2023-04-03T05:03:14;0.30;99.90
3194;DHT22;1608;50.860;13.466;2023-04-03T05:05:41;0.20;99.90
3194;DHT22;1608;50.860;13.466;2023-04-03T05:08:07;0.30;99.90
3194;DHT22;1608;50.860;13.466;2023-04-03T05:10:34;0.30;99.90
3194;DHT22;1608;50.860;13.466;2023-04-03T05:13:01;0.40;99.90
3194;DHT22;1608;50.860;13.466;2023-04-03T05:15:29;0.30;99.90
3194;DHT22;1608;50.860;13.466;2023-04-03T05:17:56;0.40;99.90
3194;DHT22;1608;50.860;13.466;2023-04-03T05:20:23;0.60;99.90
3194;DHT22;1608;50.860;13.466;2023-04-03T05:22:50;0.80;99.90
3194;DHT22;1608;50.860;13.466;2023-04-03T05:25:17;0.60;99.90
3194;DHT22;1608;50.860;13.466;2023-04-03T05:27:44;0.60;99.90
3194;DHT22;1608;50.860;13.466;2023-04-03T05:30:11;0.60;99.90
3194;DHT22;1608;50.860;13.466;2023-04-03T05:32:40;0.50;99.90
3194;DHT22;1608;50.860;13.466;2023-04-03T05:35:07;0.40;99.90
3194;DHT22;1608;50.860;13.466;2023-04-03T05:37:35;0.40;99.90
3194;DHT22;1608;50.860;13.466;2023-04-03T05:40:02;0.40;99.90
3194;DHT22;1608;50.860;13.466;2023-04-03T05:42:29;0.50;99.90
3194;DHT22;1608;50.860;13.466;2023-04-03T05:44:56;0.60;99.90
3194;DHT22;1608;50.860;13.466;2023-04-03T05:47:23;0.60;99.90
3194;DHT22;1608;50.860;13.466;2023-04-03T05:49:52;0.50;99.90
3194;DHT22;1608;50.860;13.466;2023-04-03T05:52:22;0.40;99.90
3194;DHT22;1608;50.860;13.466;2023-04-03T05:54:49;0.60;99.90
3194;DHT22;1608;50.860;13.466;2023-04-03T05:57:16;0.60;99.90
3194;DHT22;1608;50.860;13.466;2023-04-03T05:59:43;0.70;99.90
3194;DHT22;1608;50.860;13.466;2023-04-03T06:02:12;0.60;99.90
3194;DHT22;1608;50.860;13.466;2023-04-03T06:04:39;0.60;99.90
3194;DHT22;1608;50.860;13.466;2023-04-03T06:07:10;0.50;99.90
3194;DHT22;1608;50.860;13.466;2023-04-03T06:09:38;0.60;99.90
3194;DHT22;1608;50.860;13.466;2023-04-03T06:12:05;0.50;99.90
3194;DHT22;1608;50.860;13.466;2023-04-03T06:14:32;0.60;99.90
3194;DHT22;1608;50.860;13.466;2023-04-03T06:16:59;0.50;99.90
3194;DHT22;1608;50.860;13.466;2023-04-03T06:19:27;0.50;99.90
3194;DHT22;1608;50.860;13.466;2023-04-03T06:21:54;0.50;99.90
3194;DHT22;1608;50.860;13.466;2023-04-03T06:24:22;0.30;99.90
3194;DHT22;1608;50.860;13.466;2023-04-03T06:26:51;0.30;99.90
3194;DHT22;1608;50.860;13.466;2023-04-03T06:29:18;0.40;99.90
3194;DHT22;1608;50.860;13.466;2023-04-03T06:31:45;0.50;99.90
3194;DHT22;1608;50.860;13.466;2023-04-03T06:34:12;0.60;99.90
3194;DHT22;1608;50.860;13.466;2023-04-03T06:36:39;0.80;99.90
3194;DHT22;1608;50.860;13.466;2023-04-03T06:39:06;1.00;99.90
3194;DHT22;1608;50.860;13.466;2023-04-03T06:41:35;0.90;99.90
3194;DHT22;1608;50.860;13.466;2023-04-03T06:44:01;1.00;99.90
3194;DHT22;1608;50.860;13.466;2023-04-03T06:46:28;0.80;99.90
3194;DHT22;1608;50.860;13.466;2023-04-03T06:48:55;0.70;99.90
3194;DHT22;1608;50.860;13.466;2023-04-03T06:51:26;0.70;99.90
3194;DHT22;1608;50.860;13.466;2023-04-03T06:53:55;0.70;99.90
3194;DHT22;1608;50.860;13.466;2023-04-03T06:56:22;0.80;99.90
3194;DHT22;1608;50.860;13.466;2023-04-03T06:58:51;0.90;99.90
3194;DHT22;1608;50.860;13.466;2023-04-03T07:01:20;0.90;99.90
3194;DHT22;1608;50.860;13.466;2023-04-03T07:03:47;1.10;99.90
3194;DHT22;1608;50.860;13.466;2023-04-03T07:06:16;1.10;99.90
3194;DHT22;1608;50.860;13.466;2023-04-03T07:08:43;1.10;99.90
3194;DHT22;1608;50.860;13.466;2023-04-03T07:11:11;1.20;99.90
3194;DHT22;1608;50.860;13.466;2023-04-03T07:13:38;1.40;99.90
3194;DHT22;1608;50.860;13.466;2023-04-03T07:16:08;1.50;99.90
3194;DHT22;1608;50.860;13.466;2023-04-03T07:18:35;1.50;99.90
3194;DHT22;1608;50.860;13.466;2023-04-03T07:21:02;1.40;99.90
3194;DHT22;1608;50.860;13.466;2023-04-03T07:23:29;1.20;99.90
3194;DHT22;1608;50.860;13.466;2023-04-03T07:25:55;1.10;99.90
3194;DHT22;1608;50.860;13.466;2023-04-03T07:28:23;1.00;99.90
3194;DHT22;1608;50.860;13.466;2023-04-03T07:30:52;1.10;99.90
3194;DHT22;1608;50.860;13.466;2023-04-03T07:33:22;1.30;99.90
3194;DHT22;1608;50.860;13.466;2023-04-03T07:35:49;1.60;99.90
3194;DHT22;1608;50.860;13.466;2023-04-03T07:38:16;1.70;99.90
3194;DHT22;1608;50.860;13.466;2023-04-03T07:40:46;1.80;99.90
3194;DHT22;1608;50.860;13.466;2023-04-03T07:43:13;2.00;99.90
3194;DHT22;1608;50.860;13.466;2023-04-03T07:45:40;2.00;99.90
3194;DHT22;1608;50.860;13.466;2023-04-03T07:48:07;2.10;99.90
3194;DHT22;1608;50.860;13.466;2023-04-03T07:50:35;2.20;99.90
3194;DHT22;1608;50.860;13.466;2023-04-03T07:53:02;2.20;99.90
3194;DHT22;1608;50.860;13.466;2023-04-03T07:55:29;2.50;99.90
3194;DHT22;1608;50.860;13.466;2023-04-03T07:57:56;2.70;99.90
3194;DHT22;1608;50.860;13.466;2023-04-03T08:00:23;2.60;99.90
3194;DHT22;1608;50.860;13.466;2023-04-03T08:02:50;2.70;99.90
3194;DHT22;1608;50.860;13.466;2023-04-03T08:05:17;3.20;99.90
3194;DHT22;1608;50.860;13.466;2023-04-03T08:07:46;3.20;99.90
3194;DHT22;1608;50.860;13.466;2023-04-03T08:10:13;3.10;99.90
3194;DHT22;1608;50.860;13.466;2023-04-03T08:12:40;3.10;99.90
3194;DHT22;1608;50.860;13.466;2023-04-03T08:15:08;2.80;99.90
3194;DHT22;1608;50.860;13.466;2023-04-03T08:17:35;2.80;99.90
3194;DHT22;1608;50.860;13.466;2023-04-03T08:20:03;2.70;99.90
3194;DHT22;1608;50.860;13.466;2023-04-03T08:22:30;2.40;99.90
3194;DHT22;1608;50.860;13.466;2023-04-03T08:24:58;2.00;99.90
3194;DHT22;1608;50.860;13.466;2023-04-03T08:27:26;2.00;99.90
3194;DHT22;1608;50.860;13.466;2023-04-03T08:29:54;1.80;99.90
3194;DHT22;1608;50.860;13.466;2023-04-03T08:32:20;1.90;99.90
3194;DHT22;1608;50.860;13.466;2023-04-03T08:34:47;2.00;99.90
3194;DHT22;1608;50.860;13.466;2023-04-03T08:37:14;2.20;99.90
3194;DHT22;1608;50.860;13.466;2023-04-03T08:39:42;2.10;99.90
3194;DHT22;1608;50.860;13.466;2023-04-03T08:42:16;2.30;99.90
3194;DHT22;1608;50.860;13.466;2023-04-03T08:44:48;2.40;99.90
3194;DHT22;1608;50.860;13.466;2023-04-03T08:47:22;2.40;99.90
3194;DHT22;1608;50.860;13.466;2023-04-03T08:49:52;2.70;99.90
3194;DHT22;1608;50.860;13.466;2023-04-03T08:52:28;2.70;99.90
3194;DHT22;1608;50.860;13.466;2023-04-03T08:55:00;2.30;99.90
3194;DHT22;1608;50.860;13.466;2023-04-03T08:57:31;2.30;99.90
3194;DHT22;1608;50.860;13.466;2023-04-03T09:00:03;2.50;99.90
3194;DHT22;1608;50.860;13.466;2023-04-03T09:02:33;2.90;99.90
3194;DHT22;1608;50.860;13.466;2023-04-03T09:05:05;2.80;99.90
3194;DHT22;1608;50.860;13.466;2023-04-03T09:07:38;2.80;99.90
3194;DHT22;1608;50.860;13.466;2023-04-03T09:10:08;2.80;99.90
3194;DHT22;1608;50.860;13.466;2023-04-03T09:12:40;2.80;99.90
3194;DHT22;1608;50.860;13.466;2023-04-03T09:15:15;2.70;99.90
3194;DHT22;1608;50.860;13.466;2023-04-03T09:17:51;2.60;99.90
3194;DHT22;1608;50.860;13.466;2023-04-03T09:20:26;2.90;99.90
3194;DHT22;1608;50.860;13.466;2023-04-03T09:22:57;2.90;99.90
3194;DHT22;1608;50.860;13.466;2023-04-03T09:25:27;3.00;99.90
3194;DHT22;1608;50.860;13.466;2023-04-03T09:27:55;3.10;99.90
3194;DHT22;1608;50.860;13.466;2023-04-03T09:30:24;3.00;99.90
3194;DHT22;1608;50.860;13.466;2023-04-03T09:32:52;2.90;99.90
3194;DHT22;1608;50.860;13.466;2023-04-03T09:35:24;3.20;99.90
3194;DHT22;1608;50.860;13.466;2023-04-03T09:37:52;3.50;99.90
3194;DHT22;1608;50.860;13.466;2023-04-03T09:40:31;3.90;99.90
3194;DHT22;1608;50.860;13.466;2023-04-03T09:43:08;4.30;99.90
3194;DHT22;1608;50.860;13.466;2023-04-03T09:45:47;4.20;99.90
3194;DHT22;1608;50.860;13.466;2023-04-03T09:48:16;3.80;99.90
3194;DHT22;1608;50.860;13.466;2023-04-03T09:50:59;3.80;99.90
3194;DHT22;1608;50.860;13.466;2023-04-03T09:53:34;4.10;99.90
3194;DHT22;1608;50.860;13.466;2023-04-03T09:56:05;4.20;99.90
3194;DHT22;1608;50.860;13.466;2023-04-03T09:58:47;4.50;99.90
3194;DHT22;1608;50.860;13.466;2023-04-03T10:01:23;4.80;99.90
3194;DHT22;1608;50.860;13.466;2023-04-03T10:04:07;5.20;99.90
3194;DHT22;1608;50.860;13.466;2023-04-03T10:06:35;5.70;99.90
3194;DHT22;1608;50.860;13.466;2023-04-03T10:09:06;6.00;99.90
3194;DHT22;1608;50.860;13.466;2023-04-03T10:11:58;5.60;99.90
3194;DHT22;1608;50.860;13.466;2023-04-03T10:14:27;5.00;99.90
3194;DHT22;1608;50.860;13.466;2023-04-03T10:16:59;5.20;99.90
3194;DHT22;1608;50.860;13.466;2023-04-03T10:19:35;5.50;99.90
3194;DHT22;1608;50.860;13.466;2023-04-03T10:22:09;5.40;99.90
3194;DHT22;1608;50.860;13.466;2023-04-03T10:24:47;5.50;99.90
3194;DHT22;1608;50.860;13.466;2023-04-03T10:27:20;5.20;99.90
3194;DHT22;1608;50.860;13.466;2023-04-03T10:29:54;4.90;99.90
3194;DHT22;1608;50.860;13.466;2023-04-03T10:32:49;4.60;99.90
3194;DHT22;1608;50.860;13.466;2023-04-03T10:35:27;4.70;99.90
3194;DHT22;1608;50.860;13.466;2023-04-03T10:38:03;5.00;99.90
3194;DHT22;1608;50.860;13.466;2023-04-03T10:40:38;4.90;98.50
3194;DHT22;1608;50.860;13.466;2023-04-03T10:43:14;4.80;97.80
3194;DHT22;1608;50.860;13.466;2023-04-03T10:45:53;4.80;98.50
3194;DHT22;1608;50.860;13.466;2023-04-03T10:48:34;4.90;98.20
3194;DHT22;1608;50.860;13.466;2023-04-03T10:51:12;4.70;97.60
3194;DHT22;1608;50.860;13.466;2023-04-03T10:53:45;4.70;99.90
3194;DHT22;1608;50.860;13.466;2023-04-03T10:56:19;4.30;99.90
3194;DHT22;1608;50.860;13.466;2023-04-03T10:58:50;4.00;99.90
3194;DHT22;1608;50.860;13.466;2023-04-03T11:01:23;4.10;99.90
3194;DHT22;1608;50.860;13.466;2023-04-03T11:03:54;4.20;99.90
3194;DHT22;1608;50.860;13.466;2023-04-03T11:06:25;5.60;99.90
3194;DHT22;1608;50.860;13.466;2023-04-03T11:08:57;4.60;99.90
3194;DHT22;1608;50.860;13.466;2023-04-03T11:11:27;5.30;99.90
3194;DHT22;1608;50.860;13.466;2023-04-03T11:14:00;5.20;99.90
3194;DHT22;1608;50.860;13.466;2023-04-03T11:16:32;5.60;99.90
3194;DHT22;1608;50.860;13.466;2023-04-03T11:19:03;5.30;98.10
3194;DHT22;1608;50.860;13.466;2023-04-03T11:21:34;5.10;99.20
3194;DHT22;1608;50.860;13.466;2023-04-03T11:24:05;4.70;99.00
3194;DHT22;1608;50.860;13.466;2023-04-03T11:26:40;4.80;99.70
3194;DHT22;1608;50.860;13.466;2023-04-03T11:29:10;5.00;99.90
3194;DHT22;1608;50.860;13.466;2023-04-03T11:31:58;5.40;99.90
3194;DHT22;1608;50.860;13.466;2023-04-03T11:34:34;5.80;99.20
3194;DHT22;1608;50.860;13.466;2023-04-03T11:37:06;5.90;96.50
3194;DHT22;1608;50.860;13.466;2023-04-03T11:39:38;6.00;97.20
3194;DHT22;1608;50.860;13.466;2023-04-03T11:42:15;6.30;95.60
3194;DHT22;1608;50.860;13.466;2023-04-03T11:44:42;6.00;92.00
3194;DHT22;1608;50.860;13.466;2023-04-03T11:47:11;6.00;92.40
3194;DHT22;1608;50.860;13.466;2023-04-03T11:49:59;6.00;93.00
3194;DHT22;1608;50.860;13.466;2023-04-03T11:52:58;6.10;93.80
3194;DHT22;1608;50.860;13.466;2023-04-03T11:55:52;6.00;92.40
3194;DHT22;1608;50.860;13.466;2023-04-03T11:58:20;5.80;94.70
3194;DHT22;1608;50.860;13.466;2023-04-03T12:00:59;5.50;94.00
3194;DHT22;1608;50.860;13.466;2023-04-03T12:04:06;5.30;93.80
3194;DHT22;1608;50.860;13.466;2023-04-03T12:07:02;5.50;95.20
3194;DHT22;1608;50.860;13.466;2023-04-03T12:09:51;5.20;91.70
3194;DHT22;1608;50.860;13.466;2023-04-03T12:12:33;4.90;91.10
3194;DHT22;1608;50.860;13.466;2023-04-03T12:15:23;5.00;91.50
3194;DHT22;1608;50.860;13.466;2023-04-03T12:17:50;4.90;92.10
3194;DHT22;1608;50.860;13.466;2023-04-03T12:20:51;5.00;92.20
3194;DHT22;1608;50.860;13.466;2023-04-03T12:23:27;5.30;92.10
3194;DHT22;1608;50.860;13.466;2023-04-03T12:26:01;5.90;91.70
3194;DHT22;1608;50.860;13.466;2023-04-03T12:28:35;5.80;89.00
3194;DHT22;1608;50.860;13.466;2023-04-03T12:31:04;5.80;88.40
3194;DHT22;1608;50.860;13.466;2023-04-03T12:33:38;5.30;90.60
3194;DHT22;1608;50.860;13.466;2023-04-03T12:36:15;5.10;91.10
3194;DHT22;1608;50.860;13.466;2023-04-03T12:39:03;4.80;91.20
3194;DHT22;1608;50.860;13.466;2023-04-03T12:41:38;4.70;90.80
3194;DHT22;1608;50.860;13.466;2023-04-03T12:44:30;4.90;90.70
3194;DHT22;1608;50.860;13.466;2023-04-03T12:47:00;5.20;91.10
3194;DHT22;1608;50.860;13.466;2023-04-03T12:49:33;5.10;89.40
3194;DHT22;1608;50.860;13.466;2023-04-03T12:52:05;5.10;91.10
3194;DHT22;1608;50.860;13.466;2023-04-03T12:54:35;5.20;90.90
3194;DHT22;1608;50.860;13.466;2023-04-03T12:57:10;4.80;90.80
3194;DHT22;1608;50.860;13.466;2023-04-03T12:59:37;4.90;91.20
3194;DHT22;1608;50.860;13.466;2023-04-03T13:02:16;4.90;90.40
3194;DHT22;1608;50.860;13.466;2023-04-03T13:04:44;5.00;88.20
3194;DHT22;1608;50.860;13.466;2023-04-03T13:07:21;5.20;87.00
3194;DHT22;1608;50.860;13.466;2023-04-03T13:09:56;5.20;88.80
3194;DHT22;1608;50.860;13.466;2023-04-03T13:12:23;5.20;88.80
3194;DHT22;1608;50.860;13.466;2023-04-03T13:14:53;5.20;88.70
3194;DHT22;1608;50.860;13.466;2023-04-03T13:17:22;5.30;89.20
3194;DHT22;1608;50.860;13.466;2023-04-03T13:19:49;4.90;90.70
3194;DHT22;1608;50.860;13.466;2023-04-03T13:22:26;4.60;90.50
3194;DHT22;1608;50.860;13.466;2023-04-03T13:24:54;4.30;90.60
3194;DHT22;1608;50.860;13.466;2023-04-03T13:27:24;4.30;90.80
3194;DHT22;1608;50.860;13.466;2023-04-03T13:29:53;4.60;91.80
3194;DHT22;1608;50.860;13.466;2023-04-03T13:32:23;4.70;90.60
3194;DHT22;1608;50.860;13.466;2023-04-03T13:34:51;4.80;90.40
3194;DHT22;1608;50.860;13.466;2023-04-03T13:37:25;4.80;89.60
3194;DHT22;1608;50.860;13.466;2023-04-03T13:40:00;4.80;90.50
3194;DHT22;1608;50.860;13.466;2023-04-03T13:42:30;4.70;90.30
3194;DHT22;1608;50.860;13.466;2023-04-03T13:45:20;4.40;87.50
3194;DHT22;1608;50.860;13.466;2023-04-03T13:47:51;4.40;88.60
3194;DHT22;1608;50.860;13.466;2023-04-03T13:50:20;4.70;88.70
3194;DHT22;1608;50.860;13.466;2023-04-03T13:52:52;4.80;86.10
3194;DHT22;1608;50.860;13.466;2023-04-03T13:55:23;4.90;87.70
3194;DHT22;1608;50.860;13.466;2023-04-03T13:57:53;4.90;87.60
3194;DHT22;1608;50.860;13.466;2023-04-03T14:00:37;4.80;89.50
3194;DHT22;1608;50.860;13.466;2023-04-03T14:03:14;4.70;90.70
3194;DHT22;1608;50.860;13.466;2023-04-03T14:05:40;4.60;90.20
3194;DHT22;1608;50.860;13.466;2023-04-03T14:08:09;4.40;90.20
3194;DHT22;1608;50.860;13.466;2023-04-03T14:10:36;4.50;90.30
3194;DHT22;1608;50.860;13.466;2023-04-03T14:13:03;4.40;90.20
3194;DHT22;1608;50.860;13.466;2023-04-03T14:15:31;4.30;90.00
3194;DHT22;1608;50.860;13.466;2023-04-03T14:17:58;4.30;90.10
3194;DHT22;1608;50.860;13.466;2023-04-03T14:20:26;4.40;90.90
3194;DHT22;1608;50.860;13.466;2023-04-03T14:22:53;4.80;92.10
3194;DHT22;1608;50.860;13.466;2023-04-03T14:25:22;4.90;90.10
3194;DHT22;1608;50.860;13.466;2023-04-03T14:27:51;4.60;90.70
3194;DHT22;1608;50.860;13.466;2023-04-03T14:30:21;4.20;91.60
3194;DHT22;1608;50.860;13.466;2023-04-03T14:32:48;4.00;92.40
3194;DHT22;1608;50.860;13.466;2023-04-03T14:35:17;3.90;92.90
3194;DHT22;1608;50.860;13.466;2023-04-03T14:37:44;3.80;92.70
3194;DHT22;1608;50.860;13.466;2023-04-03T14:40:15;4.00;93.90
3194;DHT22;1608;50.860;13.466;2023-04-03T14:42:44;4.00;92.70
3194;DHT22;1608;50.860;13.466;2023-04-03T14:45:13;3.60;92.40
3194;DHT22;1608;50.860;13.466;2023-04-03T14:47:44;3.70;92.60
3194;DHT22;1608;50.860;13.466;2023-04-03T14:50:16;3.50;92.90
3194;DHT22;1608;50.860;13.466;2023-04-03T14:52:44;3.40;93.40
3194;DHT22;1608;50.860;13.466;2023-04-03T14:55:14;3.40;92.70
3194;DHT22;1608;50.860;13.466;2023-04-03T14:57:44;3.60;92.90
3194;DHT22;1608;50.860;13.466;2023-04-03T15:00:14;4.20;94.10
3194;DHT22;1608;50.860;13.466;2023-04-03T15:02:41;4.50;92.50
3194;DHT22;1608;50.860;13.466;2023-04-03T15:05:10;4.70;90.70
3194;DHT22;1608;50.860;13.466;2023-04-03T15:07:39;4.70;90.60
3194;DHT22;1608;50.860;13.466;2023-04-03T15:10:17;4.40;90.60
3194;DHT22;1608;50.860;13.466;2023-04-03T15:12:47;4.20;91.70
3194;DHT22;1608;50.860;13.466;2023-04-03T15:15:15;4.40;92.70
3194;DHT22;1608;50.860;13.466;2023-04-03T15:17:43;4.20;92.70
3194;DHT22;1608;50.860;13.466;2023-04-03T15:20:13;4.00;93.20
3194;DHT22;1608;50.860;13.466;2023-04-03T15:22:41;3.70;92.70
3194;DHT22;1608;50.860;13.466;2023-04-03T15:25:08;3.30;92.30
3194;DHT22;1608;50.860;13.466;2023-04-03T15:27:35;3.30;92.30
3194;DHT22;1608;50.860;13.466;2023-04-03T15:30:05;3.50;92.80
3194;DHT22;1608;50.860;13.466;2023-04-03T15:32:33;3.50;92.20
3194;DHT22;1608;50.860;13.466;2023-04-03T15:35:01;3.90;92.50
3194;DHT22;1608;50.860;13.466;2023-04-03T15:37:27;3.90;93.10
3194;DHT22;1608;50.860;13.466;2023-04-03T15:39:54;4.30;93.40
3194;DHT22;1608;50.860;13.466;2023-04-03T15:42:21;4.60;93.90
3194;DHT22;1608;50.860;13.466;2023-04-03T15:44:48;4.60;91.10
3194;DHT22;1608;50.860;13.466;2023-04-03T15:47:16;4.20;91.30
3194;DHT22;1608;50.860;13.466;2023-04-03T15:49:43;4.10;90.80
3194;DHT22;1608;50.860;13.466;2023-04-03T15:52:10;3.80;90.10
3194;DHT22;1608;50.860;13.466;2023-04-03T15:54:37;3.80;90.90
3194;DHT22;1608;50.860;13.466;2023-04-03T15:57:03;3.40;90.50
3194;DHT22;1608;50.860;13.466;2023-04-03T15:59:30;3.40;91.30
3194;DHT22;1608;50.860;13.466;2023-04-03T16:01:58;3.20;91.00
3194;DHT22;1608;50.860;13.466;2023-04-03T16:04:27;3.10;91.30
3194;DHT22;1608;50.860;13.466;2023-04-03T16:06:54;3.00;91.30
3194;DHT22;1608;50.860;13.466;2023-04-03T16:09:21;3.00;91.40
3194;DHT22;1608;50.860;13.466;2023-04-03T16:11:48;3.00;91.80
3194;DHT22;1608;50.860;13.466;2023-04-03T16:14:14;3.10;92.40
3194;DHT22;1608;50.860;13.466;2023-04-03T16:16:41;3.00;91.60
3194;DHT22;1608;50.860;13.466;2023-04-03T16:19:08;3.10;91.80